TimeEST,TemperatureF,Dew PointF,Humidity,Sea Level PressureIn,VisibilityMPH,Wind Direction,Wind SpeedMPH,Gust SpeedMPH,PrecipitationIn,Events,Conditions,WindDirDegrees,DateUTC
12:53 AM,41.0,30.9,67,30.23,10.0,Calm,Calm,-,N/A,,Clear,0,2012-11-10 05:53:00
1:53 AM,41.0,30.9,67,30.23,10.0,Calm,Calm,-,N/A,,Clear,0,2012-11-10 06:53:00
2:53 AM,37.9,30.9,76,30.25,10.0,SSW,3.5,-,N/A,,Clear,210,2012-11-10 07:53:00
4:53 AM,36.0,30.0,79,30.29,10.0,SW,3.5,-,N/A,,Clear,230,2012-11-10 09:53:00
5:53 AM,37.9,30.9,76,30.30,10.0,Calm,Calm,-,N/A,,Clear,0,2012-11-10 10:53:00
6:53 AM,39.9,32.0,73,30.31,10.0,Calm,Calm,-,N/A,,Scattered Clouds,0,2012-11-10 11:53:00
8:53 AM,48.0,36.0,63,30.32,10.0,Calm,Calm,-,N/A,,Scattered Clouds,0,2012-11-10 13:53:00
9:53 AM,55.0,35.1,47,30.33,10.0,Calm,Calm,-,N/A,,Mostly Cloudy,0,2012-11-10 14:53:00
10:53 AM,55.0,37.9,53,30.32,10.0,Calm,Calm,-,N/A,,Overcast,0,2012-11-10 15:53:00
11:53 AM,54.0,37.0,53,30.30,10.0,NNE,3.5,-,N/A,,Overcast,30,2012-11-10 16:53:00
12:53 PM,59.0,37.0,44,30.27,10.0,North,3.5,-,N/A,,Scattered Clouds,360,2012-11-10 17:53:00
1:53 PM,62.1,35.1,37,30.26,10.0,Calm,Calm,-,N/A,,Partly Cloudy,0,2012-11-10 18:53:00
2:53 PM,61.0,35.1,38,30.26,10.0,Calm,Calm,-,N/A,,Clear,0,2012-11-10 19:53:00
4:53 PM,55.9,36.0,47,30.29,10.0,Calm,Calm,-,N/A,,Clear,0,2012-11-10 21:53:00
5:53 PM,51.1,36.0,56,30.32,10.0,Calm,Calm,-,N/A,,Clear,0,2012-11-10 22:53:00
6:53 PM,50.0,37.0,61,30.33,10.0,Calm,Calm,-,N/A,,Clear,0,2012-11-10 23:53:00
7:53 PM,46.9,37.0,68,30.35,9.0,Calm,Calm,-,N/A,,Clear,0,2012-11-11 00:53:00
8:53 PM,46.9,37.0,68,30.35,10.0,Calm,Calm,-,N/A,,Clear,0,2012-11-11 01:53:00
9:53 PM,45.0,37.0,74,30.37,10.0,Calm,Calm,-,N/A,,Clear,0,2012-11-11 02:53:00
10:53 PM,42.1,36.0,79,30.37,9.0,Calm,Calm,-,N/A,,Partly Cloudy,0,2012-11-11 03:53:00